createdAt,value
2022-12-11T00:00:17.552Z,85.86
2022-12-11T00:05:42.264Z,85.80
2022-12-11T00:10:50.084Z,85.92
2022-12-11T00:15:53.391Z,86.11
2022-12-11T00:21:01.776Z,86.09
2022-12-11T00:26:12.302Z,85.70
2022-12-11T00:31:20.495Z,85.96
2022-12-11T00:36:26.404Z,86.06
2022-12-11T00:41:29.613Z,86.10
2022-12-11T00:46:33.020Z,86.12
2022-12-11T00:51:36.533Z,86.21
2022-12-11T00:56:40.049Z,86.31
2022-12-11T01:01:43.546Z,86.34
2022-12-11T01:06:47.083Z,86.38
2022-12-11T01:11:50.492Z,86.11
2022-12-11T01:16:54.043Z,86.26
2022-12-11T01:21:57.524Z,86.36
2022-12-11T01:27:01.041Z,86.36
2022-12-11T01:32:04.842Z,86.45
2022-12-11T01:37:08.377Z,86.58
2022-12-11T01:42:20.495Z,86.81
2022-12-11T01:47:24.018Z,87.09
2022-12-11T01:52:27.526Z,87.48
2022-12-11T01:57:31.042Z,87.93
2022-12-11T02:02:34.384Z,88.14
2022-12-11T02:08:00.328Z,88.72
2022-12-11T02:13:11.795Z,88.95
2022-12-11T02:18:17.667Z,89.04
2022-12-11T02:23:32.962Z,89.14
2022-12-11T02:28:58.521Z,89.54
2022-12-11T02:34:12.654Z,89.12
2022-12-11T02:39:16.992Z,89.89
2022-12-11T02:44:25.216Z,90.11
2022-12-11T02:49:29.316Z,90.20
2022-12-11T02:54:37.163Z,90.14
2022-12-11T02:59:44.527Z,90.44
2022-12-11T03:04:48.799Z,90.32
2022-12-11T03:09:52.931Z,90.22
2022-12-11T03:14:59.793Z,90.03
2022-12-11T03:20:12.148Z,90.25
2022-12-11T03:25:18.529Z,90.90
2022-12-11T03:30:24.670Z,91.26
2022-12-11T03:35:53.927Z,90.83
2022-12-11T03:41:02.057Z,90.70
2022-12-11T03:46:06.002Z,90.57
2022-12-11T03:51:09.901Z,90.79
2022-12-11T03:56:14.953Z,90.82
2022-12-11T04:01:18.264Z,90.74
2022-12-11T04:06:21.675Z,90.76
2022-12-11T04:11:37.171Z,91.01
2022-12-11T04:16:40.486Z,91.57
2022-12-11T04:22:02.737Z,91.40
2022-12-11T04:27:06.150Z,91.49
2022-12-11T04:32:09.568Z,91.96
2022-12-11T04:37:12.876Z,92.03
2022-12-11T04:42:16.799Z,92.51
2022-12-11T04:47:20.113Z,92.07
2022-12-11T04:52:23.522Z,92.15
2022-12-11T04:57:26.905Z,92.60
2022-12-11T05:02:30.403Z,92.43
2022-12-11T05:07:33.967Z,92.64
2022-12-11T05:12:37.277Z,92.78
2022-12-11T05:17:40.589Z,93.00
2022-12-11T05:22:43.899Z,92.88
2022-12-11T05:27:47.414Z,93.21
2022-12-11T05:32:50.828Z,93.32
2022-12-11T05:37:54.139Z,93.29
2022-12-11T05:42:57.553Z,93.33
2022-12-11T05:48:01.168Z,93.43
2022-12-11T05:53:05.610Z,93.71
2022-12-11T05:58:08.916Z,93.65
2022-12-11T06:03:12.412Z,93.83
2022-12-11T06:08:15.993Z,93.70
2022-12-11T06:13:19.461Z,93.83
2022-12-11T06:18:22.778Z,93.84
2022-12-11T06:23:26.086Z,94.05
2022-12-11T06:28:29.496Z,93.94
2022-12-11T06:33:33.982Z,94.13
2022-12-11T06:38:38.165Z,94.05
2022-12-11T06:43:43.357Z,94.48
2022-12-11T06:48:47.843Z,94.36
2022-12-11T06:53:56.598Z,93.86
2022-12-11T06:59:04.248Z,93.94
2022-12-11T07:04:10.694Z,93.49
2022-12-11T07:09:14.007Z,93.68
2022-12-11T07:14:17.525Z,93.37
2022-12-11T07:19:20.934Z,93.50
2022-12-11T07:24:24.345Z,93.56
2022-12-11T07:29:27.768Z,93.61
2022-12-11T07:34:31.068Z,93.63
2022-12-11T07:39:34.894Z,93.64
2022-12-11T07:44:38.204Z,93.45
2022-12-11T07:49:41.519Z,93.38
2022-12-11T07:54:45.028Z,93.61
2022-12-11T07:59:48.442Z,93.73
2022-12-11T08:04:51.856Z,93.36
2022-12-11T08:09:55.372Z,93.29
2022-12-11T08:14:58.783Z,93.31
2022-12-11T08:20:02.105Z,93.32
2022-12-11T08:25:06.388Z,93.14
2022-12-11T08:30:10.645Z,93.16
2022-12-11T08:35:13.873Z,93.32
2022-12-11T08:40:17.386Z,93.05
2022-12-11T08:45:20.906Z,93.45
2022-12-11T08:50:24.211Z,93.24
2022-12-11T08:55:27.625Z,93.22
2022-12-11T09:00:30.932Z,93.14
2022-12-11T09:05:34.346Z,93.05
2022-12-11T09:10:37.620Z,93.09
2022-12-11T09:15:41.971Z,93.56
2022-12-11T09:20:45.097Z,93.19
2022-12-11T09:25:48.511Z,93.08
2022-12-11T09:30:52.597Z,93.24
2022-12-11T09:36:03.842Z,93.25
2022-12-11T09:41:22.326Z,93.01
2022-12-11T09:46:32.101Z,92.86
2022-12-11T09:51:43.242Z,93.25
2022-12-11T09:56:55.381Z,93.12
2022-12-11T10:02:37.963Z,92.87
2022-12-11T10:08:00.961Z,93.05
2022-12-11T10:13:21.959Z,92.78
2022-12-11T10:18:28.283Z,92.93
2022-12-11T10:23:38.665Z,93.02
2022-12-11T10:28:41.975Z,92.72
2022-12-11T10:34:10.681Z,92.98
2022-12-11T10:39:22.355Z,92.89
2022-12-11T10:44:31.462Z,92.80
2022-12-11T10:49:36.693Z,92.91
2022-12-11T10:54:44.302Z,92.64
2022-12-11T10:59:50.424Z,92.82
2022-12-11T11:04:56.249Z,92.60
2022-12-11T11:10:11.751Z,92.66
2022-12-11T11:15:15.566Z,92.85
2022-12-11T11:20:21.438Z,92.68
2022-12-11T11:25:27.889Z,93.05
2022-12-11T11:30:38.823Z,93.10
2022-12-11T11:36:02.807Z,92.93
2022-12-11T11:41:29.158Z,92.63
2022-12-11T11:46:44.810Z,92.95
2022-12-11T11:52:11.311Z,92.77
2022-12-11T11:57:33.360Z,93.07
2022-12-11T12:02:37.219Z,93.26
2022-12-11T12:07:55.987Z,93.17
2022-12-11T12:13:47.625Z,93.36
2022-12-11T12:19:00.025Z,93.12
2022-12-11T12:24:06.717Z,93.34
2022-12-11T12:29:35.523Z,93.51
2022-12-11T12:35:03.818Z,93.53
2022-12-11T12:40:44.505Z,93.43
2022-12-11T12:46:06.374Z,93.34
2022-12-11T12:51:15.313Z,93.41
2022-12-11T12:56:20.052Z,93.30
2022-12-11T13:01:26.741Z,93.33
2022-12-11T13:06:41.145Z,93.60
2022-12-11T13:11:46.357Z,93.33
2022-12-11T13:16:51.965Z,93.66
2022-12-11T13:22:13.765Z,93.62
2022-12-11T13:27:38.276Z,93.57
2022-12-11T13:33:08.515Z,93.81
2022-12-11T13:38:19.298Z,93.31
2022-12-11T13:43:27.622Z,93.33
2022-12-11T13:48:54.236Z,93.81
2022-12-11T13:54:18.589Z,93.86
2022-12-11T13:59:37.053Z,93.81
2022-12-11T14:04:40.880Z,93.90
2022-12-11T14:09:46.130Z,93.78
2022-12-11T14:14:53.642Z,93.95
2022-12-11T14:20:00.584Z,94.05
2022-12-11T14:25:19.696Z,93.69
2022-12-11T14:30:29.278Z,93.87
2022-12-11T14:35:42.009Z,94.22
2022-12-11T14:40:49.587Z,94.34
2022-12-11T14:45:58.164Z,93.84
2022-12-11T14:51:05.558Z,94.15
2022-12-11T14:56:19.007Z,93.94
2022-12-11T15:01:25.218Z,94.26
2022-12-11T15:06:31.157Z,94.11
2022-12-11T15:11:34.570Z,94.23
2022-12-11T15:16:41.173Z,94.13
2022-12-11T15:21:44.572Z,94.69
2022-12-11T15:26:48.496Z,94.14
2022-12-11T15:32:19.402Z,94.17
2022-12-11T15:37:30.446Z,94.07
2022-12-11T15:42:42.052Z,94.12
2022-12-11T15:47:46.592Z,94.17
2022-12-11T15:52:50.982Z,93.85
2022-12-11T15:58:02.065Z,94.18
2022-12-11T16:03:05.329Z,94.09
2022-12-11T16:08:15.279Z,93.59
2022-12-11T16:13:19.222Z,94.49
2022-12-11T16:18:23.969Z,94.49
2022-12-11T16:23:29.432Z,94.21
2022-12-11T16:28:32.737Z,94.29
2022-12-11T16:33:36.256Z,94.37
2022-12-11T16:38:39.873Z,94.22
2022-12-11T16:43:43.080Z,94.62
2022-12-11T16:48:46.701Z,94.37
2022-12-11T16:53:50.111Z,94.17
2022-12-11T16:58:53.626Z,94.41
2022-12-11T17:03:57.037Z,94.67
2022-12-11T17:09:01.067Z,94.32
2022-12-11T17:14:04.887Z,94.02
2022-12-11T17:19:09.632Z,94.46
2022-12-11T17:24:12.840Z,94.69
2022-12-11T17:29:16.254Z,94.39
2022-12-11T17:34:19.516Z,94.67
2022-12-11T17:39:22.875Z,94.76
2022-12-11T17:44:27.003Z,93.95
2022-12-11T17:49:30.624Z,94.03
2022-12-11T17:54:33.932Z,93.95
2022-12-11T17:59:37.350Z,94.31
2022-12-11T18:04:40.657Z,94.04
2022-12-11T18:09:44.173Z,93.77
2022-12-11T18:14:47.588Z,93.66
2022-12-11T18:19:50.903Z,94.09
2022-12-11T18:24:56.467Z,93.98
2022-12-11T18:30:00.079Z,93.89
2022-12-11T18:35:04.965Z,93.76
2022-12-11T18:40:10.532Z,93.96
2022-12-11T18:45:14.057Z,93.81
2022-12-11T18:50:18.648Z,94.08
2022-12-11T18:55:22.368Z,94.06
2022-12-11T19:00:25.704Z,93.52
2022-12-11T19:05:29.603Z,93.61
2022-12-11T19:10:33.325Z,93.60
2022-12-11T19:15:42.090Z,93.99
2022-12-11T19:20:53.080Z,94.06
2022-12-11T19:26:01.378Z,94.18
2022-12-11T19:31:09.819Z,93.89
2022-12-11T19:36:15.959Z,93.97
2022-12-11T19:41:25.245Z,93.83
2022-12-11T19:46:29.772Z,93.88
2022-12-11T19:51:38.617Z,94.05
2022-12-11T19:56:45.286Z,94.12
2022-12-11T20:01:50.359Z,94.05
2022-12-11T20:06:53.771Z,94.38
2022-12-11T20:11:56.984Z,94.57
2022-12-11T20:17:15.738Z,94.41
2022-12-11T20:22:19.679Z,94.17
2022-12-11T20:27:23.193Z,94.42
2022-12-11T20:32:26.712Z,94.44
2022-12-11T20:37:30.126Z,94.54
2022-12-11T20:42:33.952Z,94.44
2022-12-11T20:47:37.363Z,94.61
2022-12-11T20:52:40.872Z,94.68
2022-12-11T20:57:45.420Z,94.75
2022-12-11T21:02:52.202Z,94.91
2022-12-11T21:07:55.973Z,95.22
2022-12-11T21:12:59.752Z,95.02
2022-12-11T21:18:03.225Z,95.22
2022-12-11T21:23:06.778Z,95.52
2022-12-11T21:28:09.988Z,95.43
2022-12-11T21:33:15.861Z,95.53
2022-12-11T21:38:19.170Z,95.78
2022-12-11T21:43:23.714Z,95.77
2022-12-11T21:48:27.022Z,95.97
2022-12-11T21:53:30.333Z,96.01
2022-12-11T21:58:33.640Z,96.13
2022-12-11T22:03:37.463Z,96.35
2022-12-11T22:08:40.773Z,96.40
2022-12-11T22:13:44.188Z,96.57
2022-12-11T22:18:48.274Z,96.60
2022-12-11T22:23:51.727Z,96.75
2022-12-11T22:28:56.528Z,96.81
2022-12-11T22:33:59.989Z,97.00
2022-12-11T22:39:04.017Z,96.99
2022-12-11T22:44:07.326Z,97.44
2022-12-11T22:49:11.047Z,97.49
2022-12-11T22:54:14.460Z,97.62
2022-12-11T22:59:17.771Z,97.75
2022-12-11T23:04:21.184Z,97.78
2022-12-11T23:09:25.006Z,97.91
2022-12-11T23:14:28.625Z,97.95
2022-12-11T23:19:31.935Z,97.97
2022-12-11T23:24:35.553Z,98.13
2022-12-11T23:29:38.864Z,98.14
2022-12-11T23:34:42.276Z,97.97
2022-12-11T23:39:45.587Z,98.59
2022-12-11T23:44:49.005Z,98.70
2022-12-11T23:49:52.312Z,98.52
2022-12-11T23:54:55.830Z,98.35
2022-12-11T23:59:59.243Z,98.43
